sensor_id;sensor_type;location;lat;lon;timestamp;temperature;humidity
18406;DHT22;9329;48.720;9.588;2022-11-20T00:00:21;8.90;99.90
18406;DHT22;9329;48.720;9.588;2022-11-20T00:02:48;9.30;99.90
18406;DHT22;9329;48.720;9.588;2022-11-20T00:05:15;8.50;99.90
18406;DHT22;9329;48.720;9.588;2022-11-20T00:07:42;8.90;99.90
18406;DHT22;9329;48.720;9.588;2022-11-20T00:10:09;8.90;99.90
18406;DHT22;9329;48.720;9.588;2022-11-20T00:12:38;9.10;99.90
18406;DHT22;9329;48.720;9.588;2022-11-20T00:15:06;8.40;99.90
18406;DHT22;9329;48.720;9.588;2022-11-20T00:17:33;8.50;99.90
18406;DHT22;9329;48.720;9.588;2022-11-20T00:20:00;8.70;99.90
18406;DHT22;9329;48.720;9.588;2022-11-20T00:22:27;8.70;99.90
18406;DHT22;9329;48.720;9.588;2022-11-20T00:24:54;8.30;99.90
18406;DHT22;9329;48.720;9.588;2022-11-20T00:27:22;8.30;99.90
18406;DHT22;9329;48.720;9.588;2022-11-20T00:29:51;8.20;99.90
18406;DHT22;9329;48.720;9.588;2022-11-20T00:32:18;8.30;99.90
18406;DHT22;9329;48.720;9.588;2022-11-20T00:34:45;8.20;99.90
18406;DHT22;9329;48.720;9.588;2022-11-20T00:37:12;8.30;99.90
18406;DHT22;9329;48.720;9.588;2022-11-20T00:39:39;8.30;99.90
18406;DHT22;9329;48.720;9.588;2022-11-20T00:42:06;8.50;99.90
18406;DHT22;9329;48.720;9.588;2022-11-20T00:44:33;8.30;99.90
18406;DHT22;9329;48.720;9.588;2022-11-20T00:47:01;8.10;99.90
18406;DHT22;9329;48.720;9.588;2022-11-20T00:49:28;7.60;99.90
18406;DHT22;9329;48.720;9.588;2022-11-20T00:51:55;7.70;99.90
18406;DHT22;9329;48.720;9.588;2022-11-20T00:54:23;7.60;99.90
18406;DHT22;9329;48.720;9.588;2022-11-20T00:56:52;7.50;99.90
18406;DHT22;9329;48.720;9.588;2022-11-20T00:59:19;7.40;99.90
18406;DHT22;9329;48.720;9.588;2022-11-20T01:01:46;7.10;99.90
18406;DHT22;9329;48.720;9.588;2022-11-20T01:04:15;7.60;99.90
18406;DHT22;9329;48.720;9.588;2022-11-20T01:06:42;7.40;99.90
18406;DHT22;9329;48.720;9.588;2022-11-20T01:09:11;7.60;99.90
18406;DHT22;9329;48.720;9.588;2022-11-20T01:11:39;7.90;99.90
18406;DHT22;9329;48.720;9.588;2022-11-20T01:14:10;8.00;99.90
18406;DHT22;9329;48.720;9.588;2022-11-20T01:16:41;7.90;99.90
18406;DHT22;9329;48.720;9.588;2022-11-20T01:19:11;8.20;99.90
18406;DHT22;9329;48.720;9.588;2022-11-20T01:21:41;8.00;99.90
18406;DHT22;9329;48.720;9.588;2022-11-20T01:24:12;8.10;99.90
18406;DHT22;9329;48.720;9.588;2022-11-20T01:26:42;8.10;99.90
18406;DHT22;9329;48.720;9.588;2022-11-20T01:29:12;8.20;99.90
18406;DHT22;9329;48.720;9.588;2022-11-20T01:31:41;8.20;99.90
18406;DHT22;9329;48.720;9.588;2022-11-20T01:34:11;7.80;99.90
18406;DHT22;9329;48.720;9.588;2022-11-20T01:36:40;7.80;99.90
18406;DHT22;9329;48.720;9.588;2022-11-20T01:39:11;7.80;99.90
18406;DHT22;9329;48.720;9.588;2022-11-20T01:41:39;7.90;99.90
18406;DHT22;9329;48.720;9.588;2022-11-20T01:47:35;7.80;99.90
18406;DHT22;9329;48.720;9.588;2022-11-20T01:50:06;7.90;99.90
18406;DHT22;9329;48.720;9.588;2022-11-20T01:52:41;8.20;99.90
18406;DHT22;9329;48.720;9.588;2022-11-20T01:55:13;8.40;99.90
18406;DHT22;9329;48.720;9.588;2022-11-20T01:57:41;8.30;99.90
18406;DHT22;9329;48.720;9.588;2022-11-20T02:00:11;8.20;99.90
18406;DHT22;9329;48.720;9.588;2022-11-20T02:02:39;7.80;99.90
18406;DHT22;9329;48.720;9.588;2022-11-20T02:05:14;7.40;99.90
18406;DHT22;9329;48.720;9.588;2022-11-20T02:07:46;7.60;99.90
18406;DHT22;9329;48.720;9.588;2022-11-20T02:10:14;7.80;99.90
18406;DHT22;9329;48.720;9.588;2022-11-20T02:12:41;7.90;99.90
18406;DHT22;9329;48.720;9.588;2022-11-20T02:15:26;7.90;99.90
18406;DHT22;9329;48.720;9.588;2022-11-20T02:17:53;8.30;99.90
18406;DHT22;9329;48.720;9.588;2022-11-20T02:20:20;8.50;99.90
18406;DHT22;9329;48.720;9.588;2022-11-20T02:22:53;8.40;99.90
18406;DHT22;9329;48.720;9.588;2022-11-20T02:25:24;8.30;99.90
18406;DHT22;9329;48.720;9.588;2022-11-20T02:27:52;8.20;99.90
18406;DHT22;9329;48.720;9.588;2022-11-20T02:30:19;8.10;99.90
18406;DHT22;9329;48.720;9.588;2022-11-20T02:32:46;7.90;99.90
18406;DHT22;9329;48.720;9.588;2022-11-20T02:35:41;7.50;99.90
18406;DHT22;9329;48.720;9.588;2022-11-20T02:38:08;7.80;99.90
18406;DHT22;9329;48.720;9.588;2022-11-20T02:40:37;7.80;99.90
18406;DHT22;9329;48.720;9.588;2022-11-20T02:43:03;7.90;99.90
18406;DHT22;9329;48.720;9.588;2022-11-20T02:45:31;7.80;99.90
18406;DHT22;9329;48.720;9.588;2022-11-20T02:47:58;7.50;99.90
18406;DHT22;9329;48.720;9.588;2022-11-20T02:50:26;7.40;99.90
18406;DHT22;9329;48.720;9.588;2022-11-20T02:52:53;7.10;99.90
18406;DHT22;9329;48.720;9.588;2022-11-20T02:55:20;7.30;99.90
18406;DHT22;9329;48.720;9.588;2022-11-20T02:57:49;7.20;99.90
18406;DHT22;9329;48.720;9.588;2022-11-20T03:00:16;6.80;99.90
18406;DHT22;9329;48.720;9.588;2022-11-20T03:02:43;6.80;99.90
18406;DHT22;9329;48.720;9.588;2022-11-20T03:05:10;6.90;99.90
18406;DHT22;9329;48.720;9.588;2022-11-20T03:07:37;7.00;99.90
18406;DHT22;9329;48.720;9.588;2022-11-20T03:10:05;7.00;99.90
18406;DHT22;9329;48.720;9.588;2022-11-20T03:12:32;7.00;99.90
18406;DHT22;9329;48.720;9.588;2022-11-20T03:15:00;7.60;99.90
18406;DHT22;9329;48.720;9.588;2022-11-20T03:17:28;7.70;99.90
18406;DHT22;9329;48.720;9.588;2022-11-20T03:19:55;7.60;99.90
18406;DHT22;9329;48.720;9.588;2022-11-20T03:22:22;7.70;99.90
18406;DHT22;9329;48.720;9.588;2022-11-20T03:24:49;7.80;99.90
18406;DHT22;9329;48.720;9.588;2022-11-20T03:27:16;7.50;99.90
18406;DHT22;9329;48.720;9.588;2022-11-20T03:29:43;7.50;99.90
18406;DHT22;9329;48.720;9.588;2022-11-20T03:32:11;7.90;99.90
18406;DHT22;9329;48.720;9.588;2022-11-20T03:34:38;7.50;99.90
18406;DHT22;9329;48.720;9.588;2022-11-20T03:37:06;7.80;99.90
18406;DHT22;9329;48.720;9.588;2022-11-20T03:39:33;8.10;99.90
18406;DHT22;9329;48.720;9.588;2022-11-20T03:42:00;8.30;99.90
18406;DHT22;9329;48.720;9.588;2022-11-20T03:44:27;8.20;99.90
18406;DHT22;9329;48.720;9.588;2022-11-20T03:46:53;8.50;99.90
18406;DHT22;9329;48.720;9.588;2022-11-20T03:49:22;8.10;99.90
18406;DHT22;9329;48.720;9.588;2022-11-20T03:51:49;8.10;99.90
18406;DHT22;9329;48.720;9.588;2022-11-20T03:54:16;8.10;99.90
18406;DHT22;9329;48.720;9.588;2022-11-20T03:56:43;8.30;99.90
18406;DHT22;9329;48.720;9.588;2022-11-20T03:59:10;8.30;99.90
18406;DHT22;9329;48.720;9.588;2022-11-20T04:01:37;7.70;99.90
18406;DHT22;9329;48.720;9.588;2022-11-20T04:04:04;7.60;99.90
18406;DHT22;9329;48.720;9.588;2022-11-20T04:06:36;7.90;99.90
18406;DHT22;9329;48.720;9.588;2022-11-20T04:09:04;7.90;99.90
18406;DHT22;9329;48.720;9.588;2022-11-20T04:11:33;8.10;99.90
18406;DHT22;9329;48.720;9.588;2022-11-20T04:14:02;8.00;99.90
18406;DHT22;9329;48.720;9.588;2022-11-20T04:16:31;7.50;99.90
18406;DHT22;9329;48.720;9.588;2022-11-20T04:18:59;7.90;99.90
18406;DHT22;9329;48.720;9.588;2022-11-20T04:21:28;7.80;99.90
18406;DHT22;9329;48.720;9.588;2022-11-20T04:23:56;7.60;99.90
18406;DHT22;9329;48.720;9.588;2022-11-20T04:26:26;7.70;99.90
18406;DHT22;9329;48.720;9.588;2022-11-20T04:28:53;7.80;99.90
18406;DHT22;9329;48.720;9.588;2022-11-20T04:31:23;7.90;99.90
18406;DHT22;9329;48.720;9.588;2022-11-20T04:33:50;8.10;99.90
18406;DHT22;9329;48.720;9.588;2022-11-20T04:36:18;7.80;99.90
18406;DHT22;9329;48.720;9.588;2022-11-20T04:38:46;7.70;99.90
18406;DHT22;9329;48.720;9.588;2022-11-20T04:41:16;7.80;99.90
18406;DHT22;9329;48.720;9.588;2022-11-20T04:43:46;7.70;99.90
18406;DHT22;9329;48.720;9.588;2022-11-20T04:46:14;7.50;99.90
18406;DHT22;9329;48.720;9.588;2022-11-20T04:48:41;7.50;99.90
18406;DHT22;9329;48.720;9.588;2022-11-20T04:51:08;7.40;99.90
18406;DHT22;9329;48.720;9.588;2022-11-20T04:53:35;7.00;99.90
18406;DHT22;9329;48.720;9.588;2022-11-20T04:56:05;7.30;99.90
18406;DHT22;9329;48.720;9.588;2022-11-20T04:58:34;7.60;99.90
18406;DHT22;9329;48.720;9.588;2022-11-20T05:01:02;7.40;99.90
18406;DHT22;9329;48.720;9.588;2022-11-20T05:03:29;7.40;99.90
18406;DHT22;9329;48.720;9.588;2022-11-20T05:05:59;7.70;99.90
18406;DHT22;9329;48.720;9.588;2022-11-20T05:08:26;7.90;99.90
18406;DHT22;9329;48.720;9.588;2022-11-20T05:10:53;7.60;99.90
18406;DHT22;9329;48.720;9.588;2022-11-20T05:13:20;7.60;99.90
18406;DHT22;9329;48.720;9.588;2022-11-20T05:15:48;7.60;99.90
18406;DHT22;9329;48.720;9.588;2022-11-20T05:18:15;8.00;99.90
18406;DHT22;9329;48.720;9.588;2022-11-20T05:20:42;8.00;99.90
18406;DHT22;9329;48.720;9.588;2022-11-20T05:23:09;7.90;99.90
18406;DHT22;9329;48.720;9.588;2022-11-20T05:25:36;8.20;99.90
18406;DHT22;9329;48.720;9.588;2022-11-20T05:28:03;8.50;99.90
18406;DHT22;9329;48.720;9.588;2022-11-20T05:30:30;8.40;99.90
18406;DHT22;9329;48.720;9.588;2022-11-20T05:32:58;8.30;99.90
18406;DHT22;9329;48.720;9.588;2022-11-20T05:35:25;7.80;99.90
18406;DHT22;9329;48.720;9.588;2022-11-20T05:37:52;8.10;99.90
18406;DHT22;9329;48.720;9.588;2022-11-20T05:40:19;8.30;99.90
18406;DHT22;9329;48.720;9.588;2022-11-20T05:42:46;8.10;99.90
18406;DHT22;9329;48.720;9.588;2022-11-20T05:45:13;8.30;99.90
18406;DHT22;9329;48.720;9.588;2022-11-20T05:47:40;8.40;99.90
18406;DHT22;9329;48.720;9.588;2022-11-20T05:50:09;8.30;99.90
18406;DHT22;9329;48.720;9.588;2022-11-20T05:52:36;8.50;99.90
18406;DHT22;9329;48.720;9.588;2022-11-20T05:55:03;8.90;99.90
18406;DHT22;9329;48.720;9.588;2022-11-20T05:57:31;8.50;99.90
18406;DHT22;9329;48.720;9.588;2022-11-20T05:59:58;8.50;99.90
18406;DHT22;9329;48.720;9.588;2022-11-20T06:02:25;8.30;99.90
18406;DHT22;9329;48.720;9.588;2022-11-20T06:04:52;8.30;99.90
18406;DHT22;9329;48.720;9.588;2022-11-20T06:07:21;8.30;99.90
18406;DHT22;9329;48.720;9.588;2022-11-20T06:09:47;8.40;99.90
18406;DHT22;9329;48.720;9.588;2022-11-20T06:12:14;8.40;99.90
18406;DHT22;9329;48.720;9.588;2022-11-20T06:14:41;8.20;99.90
18406;DHT22;9329;48.720;9.588;2022-11-20T06:17:09;7.90;99.90
18406;DHT22;9329;48.720;9.588;2022-11-20T06:19:36;8.20;99.90
18406;DHT22;9329;48.720;9.588;2022-11-20T06:22:03;8.40;99.90
18406;DHT22;9329;48.720;9.588;2022-11-20T06:24:31;8.50;99.90
18406;DHT22;9329;48.720;9.588;2022-11-20T06:26:58;7.90;99.90
18406;DHT22;9329;48.720;9.588;2022-11-20T06:29:28;8.30;99.90
18406;DHT22;9329;48.720;9.588;2022-11-20T06:31:55;8.30;99.90
18406;DHT22;9329;48.720;9.588;2022-11-20T06:34:22;8.60;99.90
18406;DHT22;9329;48.720;9.588;2022-11-20T06:36:49;8.60;99.90
18406;DHT22;9329;48.720;9.588;2022-11-20T06:39:16;8.60;99.90
18406;DHT22;9329;48.720;9.588;2022-11-20T06:41:45;8.70;99.90
18406;DHT22;9329;48.720;9.588;2022-11-20T06:44:12;8.70;99.90
18406;DHT22;9329;48.720;9.588;2022-11-20T06:46:39;8.50;99.90
18406;DHT22;9329;48.720;9.588;2022-11-20T06:49:06;8.60;99.90
18406;DHT22;9329;48.720;9.588;2022-11-20T06:51:33;8.50;99.90
18406;DHT22;9329;48.720;9.588;2022-11-20T06:54:00;8.50;99.90
18406;DHT22;9329;48.720;9.588;2022-11-20T06:56:27;8.30;99.90
18406;DHT22;9329;48.720;9.588;2022-11-20T06:58:55;8.30;99.90
18406;DHT22;9329;48.720;9.588;2022-11-20T07:01:22;8.40;99.90
18406;DHT22;9329;48.720;9.588;2022-11-20T07:03:49;8.20;99.90
18406;DHT22;9329;48.720;9.588;2022-11-20T07:06:17;8.60;99.90
18406;DHT22;9329;48.720;9.588;2022-11-20T07:08:44;8.40;99.90
18406;DHT22;9329;48.720;9.588;2022-11-20T07:11:12;8.40;99.90
18406;DHT22;9329;48.720;9.588;2022-11-20T07:13:39;8.70;99.90
18406;DHT22;9329;48.720;9.588;2022-11-20T07:16:09;8.80;99.90
18406;DHT22;9329;48.720;9.588;2022-11-20T07:18:36;8.50;99.90
18406;DHT22;9329;48.720;9.588;2022-11-20T07:21:05;8.40;99.90
18406;DHT22;9329;48.720;9.588;2022-11-20T07:23:33;8.40;99.90
18406;DHT22;9329;48.720;9.588;2022-11-20T07:26:03;8.40;99.90
18406;DHT22;9329;48.720;9.588;2022-11-20T07:28:30;8.30;99.90
18406;DHT22;9329;48.720;9.588;2022-11-20T07:30:57;8.80;99.90
18406;DHT22;9329;48.720;9.588;2022-11-20T07:33:26;8.60;99.90
18406;DHT22;9329;48.720;9.588;2022-11-20T07:35:53;8.50;99.90
18406;DHT22;9329;48.720;9.588;2022-11-20T07:38:23;8.70;99.90
18406;DHT22;9329;48.720;9.588;2022-11-20T07:40:53;8.70;99.90
18406;DHT22;9329;48.720;9.588;2022-11-20T07:43:21;8.60;99.90
18406;DHT22;9329;48.720;9.588;2022-11-20T07:45:48;8.90;99.90
18406;DHT22;9329;48.720;9.588;2022-11-20T07:48:18;8.50;99.90
18406;DHT22;9329;48.720;9.588;2022-11-20T07:50:47;8.90;99.90
18406;DHT22;9329;48.720;9.588;2022-11-20T07:53:14;8.90;99.90
18406;DHT22;9329;48.720;9.588;2022-11-20T07:55:46;9.00;99.90
18406;DHT22;9329;48.720;9.588;2022-11-20T07:58:13;8.90;99.90
18406;DHT22;9329;48.720;9.588;2022-11-20T08:00:42;9.00;99.90
18406;DHT22;9329;48.720;9.588;2022-11-20T08:03:09;9.10;99.90
18406;DHT22;9329;48.720;9.588;2022-11-20T08:05:39;8.90;99.90
18406;DHT22;9329;48.720;9.588;2022-11-20T08:08:08;8.80;99.90
18406;DHT22;9329;48.720;9.588;2022-11-20T08:10:35;8.80;99.90
18406;DHT22;9329;48.720;9.588;2022-11-20T08:13:02;8.60;99.90
18406;DHT22;9329;48.720;9.588;2022-11-20T08:15:49;8.50;99.90
18406;DHT22;9329;48.720;9.588;2022-11-20T08:18:17;8.90;99.90
18406;DHT22;9329;48.720;9.588;2022-11-20T08:20:46;9.20;99.90
18406;DHT22;9329;48.720;9.588;2022-11-20T08:23:14;9.40;99.90
18406;DHT22;9329;48.720;9.588;2022-11-20T08:25:42;9.60;99.90
18406;DHT22;9329;48.720;9.588;2022-11-20T08:28:09;9.40;99.90
18406;DHT22;9329;48.720;9.588;2022-11-20T08:30:37;9.30;99.90
18406;DHT22;9329;48.720;9.588;2022-11-20T08:33:06;9.30;99.90
18406;DHT22;9329;48.720;9.588;2022-11-20T08:35:34;9.30;99.90
18406;DHT22;9329;48.720;9.588;2022-11-20T08:38:01;9.10;99.90
18406;DHT22;9329;48.720;9.588;2022-11-20T08:40:30;9.30;99.90
18406;DHT22;9329;48.720;9.588;2022-11-20T08:42:57;9.20;99.90
18406;DHT22;9329;48.720;9.588;2022-11-20T08:45:24;9.20;99.90
18406;DHT22;9329;48.720;9.588;2022-11-20T08:47:52;9.00;99.90
18406;DHT22;9329;48.720;9.588;2022-11-20T08:50:19;9.00;99.90
18406;DHT22;9329;48.720;9.588;2022-11-20T08:52:46;9.00;99.90
18406;DHT22;9329;48.720;9.588;2022-11-20T08:55:13;8.80;99.90
18406;DHT22;9329;48.720;9.588;2022-11-20T08:57:41;9.20;99.90
18406;DHT22;9329;48.720;9.588;2022-11-20T09:00:10;9.40;99.90
18406;DHT22;9329;48.720;9.588;2022-11-20T09:02:38;9.80;99.90
18406;DHT22;9329;48.720;9.588;2022-11-20T09:05:05;10.00;99.90
18406;DHT22;9329;48.720;9.588;2022-11-20T09:07:32;9.70;99.90
18406;DHT22;9329;48.720;9.588;2022-11-20T09:10:00;9.60;99.90
18406;DHT22;9329;48.720;9.588;2022-11-20T09:12:27;9.70;99.90
18406;DHT22;9329;48.720;9.588;2022-11-20T09:14:55;9.60;99.90
18406;DHT22;9329;48.720;9.588;2022-11-20T09:17:22;9.30;99.90
18406;DHT22;9329;48.720;9.588;2022-11-20T09:19:49;9.20;99.90
18406;DHT22;9329;48.720;9.588;2022-11-20T09:22:16;9.20;99.90
18406;DHT22;9329;48.720;9.588;2022-11-20T09:24:46;9.40;99.90
18406;DHT22;9329;48.720;9.588;2022-11-20T09:27:13;9.60;99.90
18406;DHT22;9329;48.720;9.588;2022-11-20T09:29:40;9.60;99.90
18406;DHT22;9329;48.720;9.588;2022-11-20T09:32:09;9.70;99.90
18406;DHT22;9329;48.720;9.588;2022-11-20T09:34:36;9.70;99.90
18406;DHT22;9329;48.720;9.588;2022-11-20T09:37:03;9.70;99.90
18406;DHT22;9329;48.720;9.588;2022-11-20T09:39:30;9.70;99.90
18406;DHT22;9329;48.720;9.588;2022-11-20T09:42:09;9.60;99.90
18406;DHT22;9329;48.720;9.588;2022-11-20T09:47:53;9.80;99.90
18406;DHT22;9329;48.720;9.588;2022-11-20T09:50:31;9.80;99.90
18406;DHT22;9329;48.720;9.588;2022-11-20T09:53:19;9.80;99.90
18406;DHT22;9329;48.720;9.588;2022-11-20T09:55:48;9.70;99.90
18406;DHT22;9329;48.720;9.588;2022-11-20T09:58:22;9.50;99.90
18406;DHT22;9329;48.720;9.588;2022-11-20T10:00:52;9.40;99.90
18406;DHT22;9329;48.720;9.588;2022-11-20T10:03:30;9.30;99.90
18406;DHT22;9329;48.720;9.588;2022-11-20T10:06:00;9.30;99.90
18406;DHT22;9329;48.720;9.588;2022-11-20T10:08:35;9.60;99.90
18406;DHT22;9329;48.720;9.588;2022-11-20T10:11:13;9.60;99.90
18406;DHT22;9329;48.720;9.588;2022-11-20T10:13:51;9.50;99.90
18406;DHT22;9329;48.720;9.588;2022-11-20T10:16:31;9.50;99.90
18406;DHT22;9329;48.720;9.588;2022-11-20T10:19:13;9.60;99.90
18406;DHT22;9329;48.720;9.588;2022-11-20T10:21:55;9.40;99.90
18406;DHT22;9329;48.720;9.588;2022-11-20T10:24:40;9.20;99.90
18406;DHT22;9329;48.720;9.588;2022-11-20T10:27:23;9.30;99.90
18406;DHT22;9329;48.720;9.588;2022-11-20T10:30:01;9.00;99.90
18406;DHT22;9329;48.720;9.588;2022-11-20T10:32:34;9.50;99.90
18406;DHT22;9329;48.720;9.588;2022-11-20T10:35:14;9.30;99.90
18406;DHT22;9329;48.720;9.588;2022-11-20T10:37:45;9.40;99.90
18406;DHT22;9329;48.720;9.588;2022-11-20T10:40:23;9.50;99.90
18406;DHT22;9329;48.720;9.588;2022-11-20T10:42:54;9.20;99.90
18406;DHT22;9329;48.720;9.588;2022-11-20T10:45:33;9.30;99.90
18406;DHT22;9329;48.720;9.588;2022-11-20T10:48:15;9.00;99.90
18406;DHT22;9329;48.720;9.588;2022-11-20T10:50:55;8.90;99.90
18406;DHT22;9329;48.720;9.588;2022-11-20T10:53:36;9.10;99.90
18406;DHT22;9329;48.720;9.588;2022-11-20T10:56:09;9.30;99.90
18406;DHT22;9329;48.720;9.588;2022-11-20T10:58:45;9.30;99.90
18406;DHT22;9329;48.720;9.588;2022-11-20T11:01:17;9.40;99.90
18406;DHT22;9329;48.720;9.588;2022-11-20T11:03:44;9.40;99.90
18406;DHT22;9329;48.720;9.588;2022-11-20T11:06:19;9.10;99.90
18406;DHT22;9329;48.720;9.588;2022-11-20T11:08:49;9.00;99.90
18406;DHT22;9329;48.720;9.588;2022-11-20T11:11:22;9.10;99.90
18406;DHT22;9329;48.720;9.588;2022-11-20T11:13:50;9.20;99.90
18406;DHT22;9329;48.720;9.588;2022-11-20T11:16:21;9.10;99.90
18406;DHT22;9329;48.720;9.588;2022-11-20T11:18:48;9.10;99.90
18406;DHT22;9329;48.720;9.588;2022-11-20T11:21:22;9.10;99.90
18406;DHT22;9329;48.720;9.588;2022-11-20T11:23:59;9.00;99.90
18406;DHT22;9329;48.720;9.588;2022-11-20T11:26:26;9.00;99.90
18406;DHT22;9329;48.720;9.588;2022-11-20T11:28:55;8.80;99.90
18406;DHT22;9329;48.720;9.588;2022-11-20T11:31:24;9.20;99.90
18406;DHT22;9329;48.720;9.588;2022-11-20T11:33:51;9.30;99.90
18406;DHT22;9329;48.720;9.588;2022-11-20T11:36:22;9.30;99.90
18406;DHT22;9329;48.720;9.588;2022-11-20T11:38:52;9.20;99.90
18406;DHT22;9329;48.720;9.588;2022-11-20T11:41:20;9.20;99.90
18406;DHT22;9329;48.720;9.588;2022-11-20T11:43:52;9.30;99.90
18406;DHT22;9329;48.720;9.588;2022-11-20T11:46:39;9.00;99.90
18406;DHT22;9329;48.720;9.588;2022-11-20T11:49:17;9.20;99.90
18406;DHT22;9329;48.720;9.588;2022-11-20T11:52:00;9.40;99.90
18406;DHT22;9329;48.720;9.588;2022-11-20T11:54:34;9.10;99.90
18406;DHT22;9329;48.720;9.588;2022-11-20T11:57:12;9.10;99.90
18406;DHT22;9329;48.720;9.588;2022-11-20T11:59:55;9.10;99.90
18406;DHT22;9329;48.720;9.588;2022-11-20T12:02:32;9.30;99.90
18406;DHT22;9329;48.720;9.588;2022-11-20T12:05:09;9.90;99.90
18406;DHT22;9329;48.720;9.588;2022-11-20T12:07:46;9.70;99.90
18406;DHT22;9329;48.720;9.588;2022-11-20T12:10:22;10.40;99.90
18406;DHT22;9329;48.720;9.588;2022-11-20T12:12:55;10.60;99.90
18406;DHT22;9329;48.720;9.588;2022-11-20T12:15:30;11.20;99.90
18406;DHT22;9329;48.720;9.588;2022-11-20T12:17:58;11.30;99.90
18406;DHT22;9329;48.720;9.588;2022-11-20T12:20:31;11.50;99.90
18406;DHT22;9329;48.720;9.588;2022-11-20T12:23:09;11.80;99.90
18406;DHT22;9329;48.720;9.588;2022-11-20T12:25:42;11.40;99.90
18406;DHT22;9329;48.720;9.588;2022-11-20T12:28:22;11.10;99.90
18406;DHT22;9329;48.720;9.588;2022-11-20T12:31:16;11.20;99.90
18406;DHT22;9329;48.720;9.588;2022-11-20T12:34:13;11.10;99.90
18406;DHT22;9329;48.720;9.588;2022-11-20T12:36:51;11.40;99.90
18406;DHT22;9329;48.720;9.588;2022-11-20T12:39:36;11.90;99.90
18406;DHT22;9329;48.720;9.588;2022-11-20T12:42:30;12.90;99.90
18406;DHT22;9329;48.720;9.588;2022-11-20T12:45:45;13.70;99.90
18406;DHT22;9329;48.720;9.588;2022-11-20T12:48:24;13.50;99.90
18406;DHT22;9329;48.720;9.588;2022-11-20T12:51:18;13.50;99.90
18406;DHT22;9329;48.720;9.588;2022-11-20T12:53:57;13.70;99.90
18406;DHT22;9329;48.720;9.588;2022-11-20T12:56:34;13.50;99.90
18406;DHT22;9329;48.720;9.588;2022-11-20T12:59:27;13.40;99.90
18406;DHT22;9329;48.720;9.588;2022-11-20T13:02:08;13.00;99.90
18406;DHT22;9329;48.720;9.588;2022-11-20T13:04:49;13.10;99.90
18406;DHT22;9329;48.720;9.588;2022-11-20T13:07:20;13.00;99.90
18406;DHT22;9329;48.720;9.588;2022-11-20T13:09:50;13.00;99.90
18406;DHT22;9329;48.720;9.588;2022-11-20T13:12:23;12.80;99.90
18406;DHT22;9329;48.720;9.588;2022-11-20T13:14:55;12.90;99.90
18406;DHT22;9329;48.720;9.588;2022-11-20T13:17:34;12.90;99.90
18406;DHT22;9329;48.720;9.588;2022-11-20T13:20:06;12.20;99.90
18406;DHT22;9329;48.720;9.588;2022-11-20T13:22:44;12.30;99.90
18406;DHT22;9329;48.720;9.588;2022-11-20T13:25:23;11.80;99.90
18406;DHT22;9329;48.720;9.588;2022-11-20T13:27:54;11.50;99.90
18406;DHT22;9329;48.720;9.588;2022-11-20T13:30:23;11.60;99.90
18406;DHT22;9329;48.720;9.588;2022-11-20T13:32:55;11.80;99.90
18406;DHT22;9329;48.720;9.588;2022-11-20T13:35:31;11.60;99.90
18406;DHT22;9329;48.720;9.588;2022-11-20T13:38:05;11.60;99.90
18406;DHT22;9329;48.720;9.588;2022-11-20T13:40:34;11.70;99.90
18406;DHT22;9329;48.720;9.588;2022-11-20T13:43:11;12.00;99.90
18406;DHT22;9329;48.720;9.588;2022-11-20T13:45:42;12.00;99.90
18406;DHT22;9329;48.720;9.588;2022-11-20T13:48:20;11.70;99.90
18406;DHT22;9329;48.720;9.588;2022-11-20T13:51:07;11.40;99.90
18406;DHT22;9329;48.720;9.588;2022-11-20T13:56:51;10.90;99.90
18406;DHT22;9329;48.720;9.588;2022-11-20T13:59:37;10.90;99.90
18406;DHT22;9329;48.720;9.588;2022-11-20T14:02:11;11.10;99.90
18406;DHT22;9329;48.720;9.588;2022-11-20T14:04:43;11.20;99.90
18406;DHT22;9329;48.720;9.588;2022-11-20T14:07:12;10.90;99.90
18406;DHT22;9329;48.720;9.588;2022-11-20T14:09:49;10.90;99.90
18406;DHT22;9329;48.720;9.588;2022-11-20T14:12:18;11.10;99.90
18406;DHT22;9329;48.720;9.588;2022-11-20T14:14:52;11.20;99.90
18406;DHT22;9329;48.720;9.588;2022-11-20T14:17:22;11.10;99.90
18406;DHT22;9329;48.720;9.588;2022-11-20T14:19:52;10.80;99.90
18406;DHT22;9329;48.720;9.588;2022-11-20T14:22:22;10.70;99.90
18406;DHT22;9329;48.720;9.588;2022-11-20T14:25:01;10.70;99.90
18406;DHT22;9329;48.720;9.588;2022-11-20T14:27:29;10.50;99.90
18406;DHT22;9329;48.720;9.588;2022-11-20T14:30:01;10.50;99.90
18406;DHT22;9329;48.720;9.588;2022-11-20T14:32:30;10.80;99.90
18406;DHT22;9329;48.720;9.588;2022-11-20T14:35:01;10.90;99.90
18406;DHT22;9329;48.720;9.588;2022-11-20T14:37:33;10.90;99.90
18406;DHT22;9329;48.720;9.588;2022-11-20T14:40:01;11.30;99.90
18406;DHT22;9329;48.720;9.588;2022-11-20T14:42:28;11.50;99.90
18406;DHT22;9329;48.720;9.588;2022-11-20T14:44:58;11.20;99.90
18406;DHT22;9329;48.720;9.588;2022-11-20T14:47:29;11.10;99.90
18406;DHT22;9329;48.720;9.588;2022-11-20T14:49:58;11.00;99.90
18406;DHT22;9329;48.720;9.588;2022-11-20T14:52:27;10.70;99.90
18406;DHT22;9329;48.720;9.588;2022-11-20T14:54:58;10.70;99.90
18406;DHT22;9329;48.720;9.588;2022-11-20T14:57:27;10.30;99.90
18406;DHT22;9329;48.720;9.588;2022-11-20T15:00:18;10.00;99.90
18406;DHT22;9329;48.720;9.588;2022-11-20T15:02:48;9.90;99.90
18406;DHT22;9329;48.720;9.588;2022-11-20T15:05:17;9.80;99.90
18406;DHT22;9329;48.720;9.588;2022-11-20T15:07:46;10.00;99.90
18406;DHT22;9329;48.720;9.588;2022-11-20T15:10:21;9.80;99.90
18406;DHT22;9329;48.720;9.588;2022-11-20T15:12:51;9.60;99.90
18406;DHT22;9329;48.720;9.588;2022-11-20T15:15:23;9.50;99.90
18406;DHT22;9329;48.720;9.588;2022-11-20T15:17:54;9.50;99.90
18406;DHT22;9329;48.720;9.588;2022-11-20T15:20:24;9.30;99.90
18406;DHT22;9329;48.720;9.588;2022-11-20T15:22:52;9.30;99.90
18406;DHT22;9329;48.720;9.588;2022-11-20T15:25:19;9.30;99.90
18406;DHT22;9329;48.720;9.588;2022-11-20T15:27:49;9.30;99.90
18406;DHT22;9329;48.720;9.588;2022-11-20T15:30:19;9.70;99.90
18406;DHT22;9329;48.720;9.588;2022-11-20T15:32:47;9.40;99.90
18406;DHT22;9329;48.720;9.588;2022-11-20T15:35:16;9.30;99.90
18406;DHT22;9329;48.720;9.588;2022-11-20T15:37:43;9.30;99.90
18406;DHT22;9329;48.720;9.588;2022-11-20T15:40:11;9.30;99.90
18406;DHT22;9329;48.720;9.588;2022-11-20T15:42:39;9.50;99.90
18406;DHT22;9329;48.720;9.588;2022-11-20T15:45:27;9.70;99.90
18406;DHT22;9329;48.720;9.588;2022-11-20T15:47:55;9.90;99.90
18406;DHT22;9329;48.720;9.588;2022-11-20T15:50:27;10.00;99.90
18406;DHT22;9329;48.720;9.588;2022-11-20T15:52:56;9.70;99.90
18406;DHT22;9329;48.720;9.588;2022-11-20T15:55:23;9.70;99.90
18406;DHT22;9329;48.720;9.588;2022-11-20T15:57:50;9.60;99.90
18406;DHT22;9329;48.720;9.588;2022-11-20T16:00:18;9.80;99.90
18406;DHT22;9329;48.720;9.588;2022-11-20T16:02:45;9.40;99.90
18406;DHT22;9329;48.720;9.588;2022-11-20T16:05:13;9.40;99.90
18406;DHT22;9329;48.720;9.588;2022-11-20T16:07:43;9.30;99.90
18406;DHT22;9329;48.720;9.588;2022-11-20T16:10:10;9.40;99.90
18406;DHT22;9329;48.720;9.588;2022-11-20T16:12:38;9.30;99.90
18406;DHT22;9329;48.720;9.588;2022-11-20T16:15:22;9.20;99.90
18406;DHT22;9329;48.720;9.588;2022-11-20T16:18:08;8.90;99.90
18406;DHT22;9329;48.720;9.588;2022-11-20T16:20:36;8.80;99.90
18406;DHT22;9329;48.720;9.588;2022-11-20T16:23:05;8.70;99.90
18406;DHT22;9329;48.720;9.588;2022-11-20T16:25:33;8.90;99.90
18406;DHT22;9329;48.720;9.588;2022-11-20T16:28:00;9.10;99.90
18406;DHT22;9329;48.720;9.588;2022-11-20T16:30:28;9.10;99.90